Time;durP1;ratioP1;P1;durP2;ratioP2;P2;SDS_P1;SDS_P2;PMS_P1;PMS_P2;Temp;Humidity;BMP_temperature;BMP_pressure;BME280_temperature;BME280_humidity;BME280_pressure;Samples;Min_cycle;Max_cycle;Signal;HPM_P1;HPM_P2
2022/04/27 00:02:23;;;;;;;22.30;14.73;;;;;;;7.57;90.44;101531.25;5080875;28;20377;-80
2022/04/27 00:04:51;;;;;;;18.70;14.38;;;;;;;7.49;91.39;101523.22;5081547;28;20074;-81
2022/04/27 00:07:18;;;;;;;17.90;13.70;;;;;;;7.53;90.69;101536.84;5081549;28;20052;-81
2022/04/27 00:09:48;;;;;;;20.67;14.70;;;;;;;7.50;90.76;101530.09;5080983;28;20071;-80
2022/04/27 00:12:14;;;;;;;20.85;13.38;;;;;;;7.48;90.93;101524.16;5080413;28;20068;-80
2022/04/27 00:14:41;;;;;;;17.48;13.95;;;;;;;7.39;92.04;101529.22;5078085;28;20457;-82
2022/04/27 00:17:07;;;;;;;20.77;14.90;;;;;;;7.45;91.40;101527.00;5080542;28;20055;-80
2022/04/27 00:19:34;;;;;;;21.60;14.35;;;;;;;7.38;91.15;101537.97;5077367;28;20048;-80
2022/04/27 00:22:03;;;;;;;21.15;14.35;;;;;;;7.25;91.55;101528.47;5078749;28;20072;-80
2022/04/27 00:24:29;;;;;;;23.00;13.88;;;;;;;7.27;91.75;101530.94;5080662;28;20052;-80
2022/04/27 00:26:56;;;;;;;22.75;14.65;;;;;;;7.12;92.42;101529.47;5080774;28;20087;-81
2022/04/27 00:29:22;;;;;;;20.70;14.05;;;;;;;7.07;92.62;101526.38;5083866;28;20052;-79
2022/04/27 00:31:49;;;;;;;20.70;14.73;;;;;;;7.12;91.96;101532.88;5087994;28;20076;-80
2022/04/27 00:34:16;;;;;;;22.20;13.63;;;;;;;7.07;92.12;101531.59;5083162;28;20139;-81
2022/04/27 00:36:43;;;;;;;20.50;15.40;;;;;;;7.06;92.86;101540.34;5083883;28;20060;-80
2022/04/27 00:39:12;;;;;;;19.73;14.40;;;;;;;7.02;93.04;101536.28;5083247;28;20106;-82
2022/04/27 00:41:38;;;;;;;22.27;14.10;;;;;;;6.99;92.53;101535.56;5083995;28;20119;-82
2022/04/27 00:44:05;;;;;;;23.17;14.82;;;;;;;7.10;93.33;101536.53;5081920;28;20111;-79
2022/04/27 00:46:32;;;;;;;19.42;14.68;;;;;;;7.10;92.80;101539.16;5082145;28;20568;-81
2022/04/27 00:48:58;;;;;;;20.92;15.02;;;;;;;7.08;93.07;101543.66;5082435;28;20109;-80
2022/04/27 00:51:29;;;;;;;24.95;15.25;;;;;;;7.09;93.46;101548.72;5082320;28;20049;-80
2022/04/27 00:53:58;;;;;;;22.02;14.45;;;;;;;7.15;92.79;101539.66;5081407;28;20106;-79
2022/04/27 00:56:27;;;;;;;20.88;14.52;;;;;;;7.23;91.59;101543.34;5079986;28;20063;-79
2022/04/27 00:58:54;;;;;;;19.83;13.93;;;;;;;7.27;91.26;101551.78;5080144;28;20103;-79
2022/04/27 01:01:21;;;;;;;21.27;14.45;;;;;;;7.22;91.19;101553.88;5080656;28;20131;-79
2022/04/27 01:03:47;;;;;;;21.00;14.85;;;;;;;7.14;92.35;101549.22;5081937;28;20079;-80
2022/04/27 01:06:15;;;;;;;22.35;14.40;;;;;;;7.12;91.85;101552.88;5080765;28;20087;-77
2022/04/27 01:08:42;;;;;;;19.73;14.88;;;;;;;7.18;91.81;101560.25;5080763;28;20056;-80
2022/04/27 01:11:10;;;;;;;19.50;15.00;;;;;;;7.18;91.50;101560.25;5079786;28;20112;-80
2022/04/27 01:13:39;;;;;;;20.35;13.88;;;;;;;7.20;91.85;101563.56;5080179;28;20055;-80
2022/04/27 01:16:06;;;;;;;20.38;15.15;;;;;;;7.29;91.61;101568.13;5080669;28;20052;-79
2022/04/27 01:18:32;;;;;;;21.55;14.05;;;;;;;7.28;91.36;101556.88;5080939;28;20082;-80
2022/04/27 01:21:04;;;;;;;17.70;14.55;;;;;;;7.32;90.43;101560.06;5081127;28;20534;-80
2022/04/27 01:23:31;;;;;;;21.50;14.30;;;;;;;7.33;90.91;101556.53;5080384;28;20499;-80
2022/04/27 01:26:05;;;;;;;22.83;14.90;;;;;;;7.20;91.05;101548.78;5083986;28;20298;-80
2022/04/27 01:28:33;;;;;;;19.30;15.00;;;;;;;7.34;90.36;101566.00;5080901;28;20044;-80
2022/04/27 01:31:01;;;;;;;18.73;14.35;;;;;;;7.38;89.87;101569.22;5090646;28;20090;-82
2022/04/27 01:33:29;;;;;;;19.42;14.20;;;;;;;7.33;90.15;101566.94;5089128;28;20049;-82
2022/04/27 01:35:58;;;;;;;18.02;13.95;;;;;;;7.44;90.17;101559.19;5087384;28;20048;-81
2022/04/27 01:38:26;;;;;;;20.63;14.75;;;;;;;7.45;89.28;101568.66;5084106;28;20033;-81
2022/04/27 01:40:54;;;;;;;22.30;14.68;;;;;;;7.43;89.74;101557.53;5083659;28;20048;-81
2022/04/27 01:43:24;;;;;;;20.27;14.93;;;;;;;7.43;89.74;101570.53;5082100;28;20108;-81
2022/04/27 01:45:51;;;;;;;20.73;15.10;;;;;;;7.35;91.08;101559.84;5082687;28;20599;-81
2022/04/27 01:48:17;;;;;;;20.58;15.18;;;;;;;7.27;92.02;101559.59;5082091;28;20056;-81
2022/04/27 01:50:44;;;;;;;22.38;16.10;;;;;;;7.11;92.70;101554.66;5082687;28;20079;-82
2022/04/27 01:55:57;;;;;;;20.92;15.85;;;;;;;7.07;92.50;101568.03;5082184;28;20064;-80
2022/04/27 01:58:24;;;;;;;18.85;15.27;;;;;;;7.16;92.04;101572.53;5082869;28;20049;-82
2022/04/27 02:00:51;;;;;;;20.13;15.68;;;;;;;7.09;93.05;101572.16;5083139;28;20044;-82
2022/04/27 02:03:20;;;;;;;25.35;16.00;;;;;;;7.01;93.55;101581.47;5083166;28;20560;-82
2022/04/27 02:05:48;;;;;;;27.05;16.58;;;;;;;6.96;93.82;101580.03;5083341;28;20049;-82
2022/04/27 02:08:17;;;;;;;22.90;16.75;;;;;;;7.07;92.89;101586.25;5082618;28;20057;-82
2022/04/27 02:10:44;;;;;;;23.30;15.48;;;;;;;7.03;93.07;101588.22;5083014;28;20087;-83
2022/04/27 02:13:12;;;;;;;22.15;15.27;;;;;;;7.02;92.23;101585.75;5081117;28;20048;-81
2022/04/27 02:15:39;;;;;;;19.52;15.70;;;;;;;6.99;92.37;101590.22;5080646;28;20049;-82
2022/04/27 02:18:07;;;;;;;22.23;15.90;;;;;;;7.01;92.21;101599.69;5080403;28;20052;-81
2022/04/27 02:20:34;;;;;;;23.88;16.90;;;;;;;6.95;93.46;101585.34;5080866;28;20051;-83
2022/04/27 02:23:06;;;;;;;20.45;16.23;;;;;;;7.06;92.41;101588.00;5081810;28;20071;-84
2022/04/27 02:25:36;;;;;;;20.50;16.27;;;;;;;6.96;93.25;101593.03;5082353;28;20131;-84
2022/04/27 03:04:23;;;;;;;25.25;16.27;;;;;;;6.24;93.76;101589.41;5082926;28;20404;-82
2022/04/27 03:06:54;;;;;;;24.23;16.15;;;;;;;6.16;94.08;101601.25;5070103;28;20047;-81
2022/04/27 03:09:22;;;;;;;26.65;16.95;;;;;;;6.06;94.64;101601.09;5083191;28;20112;-82
2022/04/27 03:11:49;;;;;;;24.67;16.70;;;;;;;5.93;95.52;101608.84;5083423;28;20048;-82
2022/04/27 03:14:16;;;;;;;26.30;18.48;;;;;;;5.74;96.44;101587.59;5082516;28;20052;-81
2022/04/27 03:16:42;;;;;;;25.92;17.90;;;;;;;5.81;96.91;101611.41;5105416;22;20533;-79
2022/04/27 03:19:09;;;;;;;24.30;17.92;;;;;;;5.81;97.15;101612.22;5119399;28;20086;-79
2022/04/27 03:21:37;;;;;;;23.77;17.65;;;;;;;5.73;96.54;101606.69;5120755;28;20101;-80
2022/04/27 03:24:04;;;;;;;24.05;17.70;;;;;;;5.74;96.29;101610.97;5119444;28;20139;-80
2022/04/27 03:26:30;;;;;;;23.52;17.45;;;;;;;5.74;95.74;101610.13;5113938;28;20131;-81
2022/04/27 03:28:57;;;;;;;23.67;16.88;;;;;;;5.77;95.33;101615.97;5098368;28;20048;-79
2022/04/27 03:31:24;;;;;;;28.25;17.30;;;;;;;5.69;95.71;101610.44;5098891;28;20143;-80
2022/04/27 03:33:50;;;;;;;21.55;16.50;;;;;;;5.75;94.71;101611.81;5099546;28;20054;-80
2022/04/27 03:36:17;;;;;;;22.73;16.80;;;;;;;5.83;94.05;101619.91;5100116;28;20079;-78
2022/04/27 03:38:48;;;;;;;24.85;16.33;;;;;;;5.82;95.09;101623.44;5098792;28;20477;-79
2022/04/27 03:41:17;;;;;;;23.70;17.13;;;;;;;5.82;93.80;101629.47;5098592;28;20052;-80
2022/04/27 03:43:44;;;;;;;20.92;17.02;;;;;;;5.81;94.14;101626.97;5099504;28;20052;-80
2022/04/27 03:46:11;;;;;;;24.52;16.92;;;;;;;5.80;93.85;101633.94;5098458;28;20055;-81
2022/04/27 03:48:37;;;;;;;25.83;17.88;;;;;;;5.80;94.38;101639.13;5098101;28;20588;-81
2022/04/27 03:51:04;;;;;;;24.38;16.70;;;;;;;5.78;93.76;101633.22;5098555;28;20072;-81
2022/04/27 03:53:31;;;;;;;24.27;16.73;;;;;;;5.80;94.02;101644.34;5098669;28;20051;-81
2022/04/27 03:55:59;;;;;;;22.73;17.20;;;;;;;5.81;93.91;101645.16;5098809;28;20107;-80
2022/04/27 03:58:26;;;;;;;23.35;16.90;;;;;;;5.86;93.30;101645.69;5098117;28;20048;-80
2022/04/27 04:00:52;;;;;;;24.70;16.95;;;;;;;5.82;94.24;101654.63;5099550;28;20083;-78
2022/04/27 04:03:19;;;;;;;23.20;16.90;;;;;;;5.77;93.62;101649.72;5098636;28;20051;-80
2022/04/27 04:05:46;;;;;;;26.02;17.02;;;;;;;5.83;94.45;101657.13;5098522;28;20116;-79
2022/04/27 04:08:13;;;;;;;25.30;18.13;;;;;;;5.77;94.03;101656.69;5098446;28;20052;-81
2022/04/27 04:10:39;;;;;;;22.58;17.85;;;;;;;5.79;94.91;101658.25;5098697;28;20135;-80
2022/04/27 04:13:07;;;;;;;23.45;17.42;;;;;;;5.76;94.54;101662.81;5097308;28;20080;-81
2022/04/27 04:15:37;;;;;;;24.27;17.27;;;;;;;5.85;95.32;101659.63;5099373;28;20103;-80
2022/04/27 04:18:04;;;;;;;23.92;17.98;;;;;;;5.79;95.22;101654.81;5099108;28;20055;-79
2022/04/27 04:20:31;;;;;;;27.77;17.67;;;;;;;5.79;95.99;101663.44;5099992;28;20488;-80
2022/04/27 04:22:58;;;;;;;25.52;17.50;;;;;;;5.82;95.12;101667.59;5100183;28;20234;-82
2022/04/27 04:28:30;;;;;;;25.35;17.95;;;;;;;5.93;95.54;101678.16;5070955;28;20040;-81
2022/04/27 04:30:58;;;;;;;24.45;17.95;;;;;;;5.98;93.69;101679.53;5098643;28;20483;-78
2022/04/27 04:33:24;;;;;;;28.25;17.67;;;;;;;5.99;93.67;101683.78;5098762;28;20104;-79
2022/04/27 04:35:52;;;;;;;27.38;18.30;;;;;;;6.04;93.67;101686.09;5099971;28;20058;-78
2022/04/27 04:38:18;;;;;;;25.73;18.48;;;;;;;6.02;93.28;101692.31;5097910;28;20492;-78
2022/04/27 04:40:45;;;;;;;24.67;17.58;;;;;;;6.07;92.52;101685.06;5098715;28;20421;-78
2022/04/27 04:43:13;;;;;;;26.92;18.13;;;;;;;6.06;92.84;101694.63;5097289;28;20072;-78
2022/04/27 04:45:40;;;;;;;23.55;17.65;;;;;;;6.07;92.71;101688.50;5097652;28;20048;-80
2022/04/27 04:48:08;;;;;;;26.80;18.10;;;;;;;6.09;92.88;101691.81;5097442;28;20055;-80
2022/04/27 04:50:35;;;;;;;31.73;19.52;;;;;;;6.13;93.11;101698.47;5098036;28;20086;-77
2022/04/27 04:53:01;;;;;;;23.70;17.42;;;;;;;6.15;93.36;101701.78;5098728;28;20048;-79
2022/04/27 04:55:29;;;;;;;30.23;18.42;;;;;;;6.07;93.15;101701.47;5098805;28;20488;-80
2022/04/27 04:57:55;;;;;;;28.58;18.05;;;;;;;6.07;92.89;101706.69;5097095;28;20054;-81
2022/04/27 05:00:23;;;;;;;21.88;18.33;;;;;;;6.19;91.65;101707.63;5097752;28;20044;-82
2022/04/27 05:02:50;;;;;;;22.75;17.80;;;;;;;6.13;92.83;101701.09;5097890;28;20120;-79
2022/04/27 05:05:17;;;;;;;24.20;17.83;;;;;;;6.14;93.08;101710.53;5098184;28;20134;-78
2022/04/27 05:07:43;;;;;;;29.23;18.65;;;;;;;6.18;93.21;101704.19;5097864;28;20130;-82
2022/04/27 05:10:10;;;;;;;26.98;18.88;;;;;;;6.24;93.87;101708.97;5097521;28;20040;-80
2022/04/27 05:12:37;;;;;;;27.77;18.50;;;;;;;6.46;92.68;101713.59;5098336;28;20087;-78
2022/04/27 05:15:04;;;;;;;26.25;17.42;;;;;;;6.64;92.03;101717.53;5099742;28;20138;-83
2022/04/27 05:17:32;;;;;;;24.45;17.15;;;;;;;6.81;91.24;101718.16;5099076;28;20129;-81
2022/04/27 05:20:00;;;;;;;26.25;16.67;;;;;;;6.76;90.29;101717.63;5098481;28;20109;-81
2022/04/27 05:22:26;;;;;;;23.48;16.73;;;;;;;6.78;89.96;101719.19;5099568;28;20048;-81
2022/04/27 05:24:53;;;;;;;27.88;17.25;;;;;;;7.33;88.63;101725.78;5098880;28;20131;-82
2022/04/27 05:27:20;;;;;;;22.73;16.63;;;;;;;7.53;87.16;101727.81;5097996;28;20052;-80
2022/04/27 05:32:40;;;;;;;22.25;15.70;;;;;;;7.86;84.96;101742.75;5096665;28;20426;-81
2022/04/27 05:35:07;;;;;;;20.23;14.82;;;;;;;8.56;84.17;101741.94;5098219;28;20234;-80
2022/04/27 05:37:34;;;;;;;20.63;14.68;;;;;;;8.94;80.95;101744.25;5096211;28;20150;-80
2022/04/27 05:40:00;;;;;;;20.75;13.77;;;;;;;9.65;78.99;101745.59;5111916;28;20067;-80
2022/04/27 05:42:33;;;;;;;19.13;13.48;;;;;;;10.04;76.53;101746.75;5113902;28;20072;-79
2022/04/27 05:45:00;;;;;;;17.70;12.80;;;;;;;10.14;74.78;101755.50;5116199;28;20093;-78
2022/04/27 05:47:26;;;;;;;17.50;12.90;;;;;;;10.04;74.88;101754.59;5115110;28;20052;-80
2022/04/27 05:49:54;;;;;;;23.35;13.95;;;;;;;10.74;74.72;101755.81;5115336;28;20050;-80
2022/04/27 05:52:21;;;;;;;16.92;12.85;;;;;;;11.21;70.77;101765.66;5113947;28;20059;-79
2022/04/27 05:54:48;;;;;;;18.95;12.68;;;;;;;11.29;71.28;101757.16;5097926;28;20058;-79
2022/04/27 05:57:14;;;;;;;20.20;13.88;;;;;;;10.91;71.78;101758.63;5096676;28;20071;-80
2022/04/27 05:59:42;;;;;;;17.42;13.30;;;;;;;11.56;68.54;101765.19;5095937;28;20058;-80
2022/04/27 06:02:09;;;;;;;16.02;13.05;;;;;;;11.77;68.92;101766.94;5096267;28;20063;-83
2022/04/27 06:04:35;;;;;;;15.48;12.98;;;;;;;11.87;67.15;101768.56;5098065;28;20079;-85
2022/04/27 06:07:04;;;;;;;17.48;13.32;;;;;;;12.45;65.12;101758.06;5100348;28;20043;-86
2022/04/27 06:09:31;;;;;;;19.50;13.00;;;;;;;11.41;69.11;101766.53;5101827;28;20075;-82
2022/04/27 06:11:58;;;;;;;23.52;14.13;;;;;;;11.95;69.76;101766.09;5100144;28;20490;-82
2022/04/27 06:14:25;;;;;;;22.63;14.52;;;;;;;12.28;69.92;101775.38;5097963;28;20071;-82
2022/04/27 06:16:52;;;;;;;15.88;12.75;;;;;;;12.04;67.68;101774.94;5099870;28;20044;-82
2022/04/27 06:19:19;;;;;;;17.95;12.80;;;;;;;12.30;67.67;101776.03;5098366;28;20135;-81
2022/04/27 06:21:45;;;;;;;16.20;12.95;;;;;;;11.99;68.79;101779.78;5099585;28;20044;-83
2022/04/27 06:24:13;;;;;;;18.65;13.63;;;;;;;11.62;70.18;101785.63;5098416;28;20045;-83
2022/04/27 06:26:40;;;;;;;15.80;12.27;;;;;;;11.21;70.26;101785.78;5101858;28;20100;-82
2022/04/27 06:29:06;;;;;;;18.75;14.30;;;;;;;10.93;72.00;101788.13;5102173;28;20514;-84
2022/04/27 06:31:38;;;;;;;19.13;14.35;;;;;;;10.50;73.88;101779.59;5098073;28;20597;-83
2022/04/27 06:34:04;;;;;;;20.30;14.35;;;;;;;10.51;74.19;101796.97;5096284;28;20047;-83
2022/04/27 06:36:31;;;;;;;19.63;14.98;;;;;;;10.19;75.63;101795.22;5096343;28;20124;-81
2022/04/27 06:38:58;;;;;;;21.88;15.23;;;;;;;9.84;76.62;101799.84;5096387;28;20075;-83
2022/04/27 06:41:25;;;;;;;21.15;16.23;;;;;;;9.98;76.58;101794.31;5099871;28;20044;-82
2022/04/27 06:43:52;;;;;;;20.38;16.10;;;;;;;9.90;78.39;101787.13;5101907;28;20134;-83
2022/04/27 06:46:19;;;;;;;21.60;15.23;;;;;;;9.93;77.17;101791.22;5101063;28;20048;-82
2022/04/27 06:48:45;;;;;;;25.92;15.60;;;;;;;10.13;76.88;101795.69;5100177;28;20130;-82
2022/04/27 06:51:12;;;;;;;21.10;15.07;;;;;;;10.70;75.34;101796.28;5100893;28;20044;-83
2022/04/27 06:53:39;;;;;;;24.67;14.98;;;;;;;11.53;70.79;101812.66;5100307;28;20140;-83
2022/04/27 06:56:05;;;;;;;21.73;14.02;;;;;;;12.44;68.47;101797.59;5100515;28;20054;-83
2022/04/27 06:58:33;;;;;;;16.95;14.25;;;;;;;13.06;66.86;101804.09;5099397;28;20048;-83
2022/04/27 07:01:00;;;;;;;17.63;14.60;;;;;;;13.50;64.18;101813.88;5100588;28;20212;-82
2022/04/27 07:03:28;;;;;;;19.73;14.25;;;;;;;14.32;61.58;101809.44;5099262;28;20079;-82
2022/04/27 07:05:54;;;;;;;19.35;13.73;;;;;;;13.95;60.69;101808.63;5099983;28;20059;-83
2022/04/27 07:08:21;;;;;;;16.63;12.88;;;;;;;13.06;63.46;101806.72;5098965;28;20115;-83
2022/04/27 07:10:49;;;;;;;16.88;13.05;;;;;;;12.90;62.22;101804.69;5100446;28;20127;-83
2022/04/27 07:13:15;;;;;;;20.77;14.07;;;;;;;14.17;60.47;101809.16;5101353;28;20052;-84
2022/04/27 07:15:43;;;;;;;15.73;13.38;;;;;;;14.28;58.83;101816.81;5100374;28;20127;-83
2022/04/27 07:18:10;;;;;;;14.63;12.80;;;;;;;14.24;57.59;101815.47;5100636;28;20588;-81
2022/04/27 07:20:37;;;;;;;18.40;12.80;;;;;;;15.11;55.32;101814.66;5101300;28;20044;-82
2022/04/27 07:23:03;;;;;;;15.82;12.48;;;;;;;15.12;54.63;101819.72;5101010;28;20071;-83
2022/04/27 07:25:30;;;;;;;15.10;12.48;;;;;;;13.95;58.73;101819.16;5100887;28;20048;-83
2022/04/27 07:27:56;;;;;;;20.30;12.25;;;;;;;14.91;54.56;101822.75;5099569;28;20131;-82
2022/04/27 07:30:24;;;;;;;18.45;13.23;;;;;;;14.29;56.81;101806.13;5099633;28;20373;-82
2022/04/27 07:32:52;;;;;;;15.93;11.63;;;;;;;13.73;57.50;101818.72;5100332;28;20048;-83
2022/04/27 07:35:19;;;;;;;18.25;13.23;;;;;;;13.24;58.86;101813.72;5100693;28;20044;-83
2022/04/27 07:37:46;;;;;;;17.88;12.35;;;;;;;13.38;59.41;101815.03;5101293;28;20083;-82
2022/04/27 07:40:13;;;;;;;17.80;13.57;;;;;;;12.58;62.19;101810.28;5109380;28;20079;-82
2022/04/27 07:42:40;;;;;;;20.48;13.20;;;;;;;14.39;57.77;101815.75;5117489;28;20124;-81
2022/04/27 07:45:09;;;;;;;14.43;11.98;;;;;;;14.54;57.56;101817.75;5117250;28;20032;-82
2022/04/27 07:47:42;;;;;;;13.57;11.50;;;;;;;14.78;55.75;101816.25;5115300;28;20070;-82
2022/04/27 07:50:12;;;;;;;16.75;12.77;;;;;;;14.92;55.50;101824.41;5101219;28;20107;-82
2022/04/27 07:52:39;;;;;;;15.25;10.93;;;;;;;15.12;53.88;101819.72;5099039;28;20080;-82
2022/04/27 07:55:07;;;;;;;14.32;11.15;;;;;;;15.72;53.16;101837.31;5101725;28;20052;-82
2022/04/27 07:57:35;;;;;;;15.63;11.13;;;;;;;15.92;53.57;101838.72;5104464;28;20084;-82
2022/04/27 08:00:04;;;;;;;15.05;11.27;;;;;;;15.50;54.52;101829.00;5104926;28;20100;-83
2022/04/27 08:02:31;;;;;;;14.85;11.20;;;;;;;14.93;55.94;101826.06;5102422;28;20411;-82
2022/04/27 08:04:57;;;;;;;13.55;10.55;;;;;;;15.14;54.86;101835.41;5098998;28;20151;-82
2022/04/27 08:07:25;;;;;;;13.93;11.07;;;;;;;15.47;55.38;101842.50;5098276;28;20139;-83
2022/04/27 08:09:52;;;;;;;16.50;11.45;;;;;;;14.44;54.58;101835.44;5098288;28;20048;-83
2022/04/27 08:12:18;;;;;;;15.68;10.75;;;;;;;14.58;54.80;101831.44;5099141;28;20124;-83
2022/04/27 08:14:45;;;;;;;17.83;12.20;;;;;;;14.46;57.41;101838.75;5098595;28;20047;-83
2022/04/27 08:17:12;;;;;;;16.13;10.77;;;;;;;16.04;55.17;101849.81;5098577;28;20075;-83
2022/04/27 08:19:38;;;;;;;15.15;11.13;;;;;;;16.86;52.43;101843.56;5099254;28;20070;-83
2022/04/27 08:22:06;;;;;;;15.35;10.35;;;;;;;15.93;51.56;101846.47;5099316;28;20132;-83
2022/04/27 08:24:38;;;;;;;13.90;9.93;;;;;;;16.25;48.64;101853.63;5098441;28;20048;-83
2022/04/27 08:27:05;;;;;;;11.82;9.25;;;;;;;16.44;49.98;101841.91;5098550;28;20082;-83
2022/04/27 08:29:32;;;;;;;12.27;9.85;;;;;;;15.93;49.85;101851.75;5098358;28;20139;-83
2022/04/27 08:31:58;;;;;;;13.63;9.98;;;;;;;15.12;50.82;101845.31;5098513;28;20485;-83
2022/04/27 08:34:26;;;;;;;12.63;9.13;;;;;;;14.92;52.44;101845.50;5098766;28;20120;-82
2022/04/27 08:36:52;;;;;;;15.70;9.65;;;;;;;14.94;51.89;101843.53;5098263;28;20105;-82
2022/04/27 08:39:19;;;;;;;14.98;10.30;;;;;;;14.98;52.81;101837.97;5097604;28;20139;-82
2022/04/27 08:41:47;;;;;;;13.32;9.82;;;;;;;14.96;51.05;101845.19;5097552;28;20476;-83
2022/04/27 08:44:14;;;;;;;13.88;10.38;;;;;;;15.10;52.42;101856.00;5098558;28;20130;-82
2022/04/27 08:46:42;;;;;;;13.70;10.18;;;;;;;15.26;51.70;101857.88;5098414;28;20131;-80
2022/04/27 08:49:10;;;;;;;14.50;10.07;;;;;;;14.97;52.73;101847.66;5095498;28;20056;-81
2022/04/27 08:51:38;;;;;;;17.00;10.38;;;;;;;15.61;52.17;101849.00;5095886;28;20040;-82
2022/04/27 08:54:05;;;;;;;14.30;10.50;;;;;;;15.87;50.44;101852.41;5095941;28;20083;-81
2022/04/27 08:56:34;;;;;;;15.35;10.50;;;;;;;15.81;50.86;101855.66;5096491;28;20074;-80
2022/04/27 08:59:03;;;;;;;14.93;11.43;;;;;;;16.31;52.32;101849.50;5096443;28;20406;-82
2022/04/27 09:01:29;;;;;;;22.20;11.73;;;;;;;16.38;51.95;101863.69;5096853;28;20040;-81
2022/04/27 09:04:14;;;;;;;14.00;11.98;;;;;;;17.38;48.72;101849.22;5097052;28;20047;-82
2022/04/27 09:06:41;;;;;;;13.35;11.48;;;;;;;17.03;48.94;101857.56;5097177;28;20058;-80
2022/04/27 09:09:10;;;;;;;15.10;11.07;;;;;;;16.68;47.97;101870.16;5095234;28;20052;-80
2022/04/27 09:11:37;;;;;;;16.35;11.13;;;;;;;15.60;50.35;101861.34;5097366;28;20048;-80
2022/04/27 09:14:07;;;;;;;14.50;12.00;;;;;;;15.62;50.25;101857.72;5098748;28;20107;-82
2022/04/27 09:22:02;;;;;;;14.00;11.23;;;;;;;16.87;50.00;101867.19;5092570;28;20048;-78
2022/04/27 09:24:30;;;;;;;15.10;12.65;;;;;;;16.64;50.66;101868.00;5093107;28;20470;-78
2022/04/27 09:27:03;;;;;;;15.32;11.80;;;;;;;16.96;48.44;101854.78;5093168;28;20466;-79
2022/04/27 09:29:31;;;;;;;13.18;11.35;;;;;;;17.15;49.54;101858.88;5093357;28;20154;-77
2022/04/27 09:31:59;;;;;;;15.85;11.48;;;;;;;17.10;47.46;101855.91;5094433;28;20063;-79
2022/04/27 09:34:29;;;;;;;15.73;11.43;;;;;;;16.51;46.76;101855.28;5095397;28;20051;-78
2022/04/27 09:36:56;;;;;;;12.73;11.07;;;;;;;17.10;46.52;101854.06;5093633;28;20149;-78
2022/04/27 09:39:25;;;;;;;13.02;11.55;;;;;;;16.13;48.15;101859.38;5090417;28;20460;-77
2022/04/27 09:41:52;;;;;;;17.00;10.98;;;;;;;16.45;47.42;101850.66;5092813;28;20542;-78
2022/04/27 09:44:29;;;;;;;14.40;10.85;;;;;;;15.65;47.85;101852.97;5092968;28;20094;-77
2022/04/27 09:46:57;;;;;;;14.43;10.65;;;;;;;16.12;48.81;101861.19;5087624;28;20135;-78
2022/04/27 09:49:24;;;;;;;15.13;11.38;;;;;;;16.17;48.71;101856.25;5089033;28;20059;-78
2022/04/27 09:51:52;;;;;;;14.07;10.60;;;;;;;16.19;48.63;101862.19;5092323;28;20127;-78
2022/04/27 09:54:20;;;;;;;16.88;10.93;;;;;;;16.59;48.96;101863.19;5072929;28;20076;-78
2022/04/27 09:56:51;;;;;;;15.05;10.75;;;;;;;16.49;48.20;101852.81;5073195;28;20056;-78
2022/04/27 09:59:21;;;;;;;14.73;10.70;;;;;;;16.78;46.33;101847.03;5072788;28;20396;-78
2022/04/27 10:01:49;;;;;;;12.43;10.50;;;;;;;16.75;46.39;101857.94;5090626;28;20366;-78
2022/04/27 10:04:20;;;;;;;15.15;10.70;;;;;;;16.57;47.01;101854.59;5100045;28;20058;-78
2022/04/27 10:06:48;;;;;;;14.40;10.52;;;;;;;16.47;47.62;101853.97;5091547;28;20044;-78
2022/04/27 10:09:14;;;;;;;17.23;10.93;;;;;;;16.58;49.08;101848.34;5101482;28;20052;-77
2022/04/27 10:11:42;;;;;;;14.10;11.18;;;;;;;16.55;46.44;101856.59;5091132;28;20072;-78
2022/04/27 10:14:09;;;;;;;15.45;10.63;;;;;;;16.29;47.10;101851.47;5102059;28;20146;-76
2022/04/27 10:16:36;;;;;;;13.82;9.77;;;;;;;16.32;48.88;101843.22;5116557;28;20086;-78
2022/04/27 10:19:03;;;;;;;13.48;10.45;;;;;;;16.78;46.91;101852.31;5117097;28;20130;-78
2022/04/27 10:21:43;;;;;;;15.13;10.30;;;;;;;16.91;47.70;101844.72;5115715;28;20071;-78
2022/04/27 10:24:11;;;;;;;12.95;10.70;;;;;;;16.35;47.39;101839.44;5090071;28;20048;-78
2022/04/27 10:26:37;;;;;;;13.63;11.00;;;;;;;16.75;46.80;101847.38;5089137;28;20079;-77
2022/04/27 10:29:05;;;;;;;14.63;10.40;;;;;;;16.80;46.36;101847.69;5091102;28;20083;-77
2022/04/27 10:31:58;;;;;;;15.15;11.23;;;;;;;16.89;46.35;101844.06;5088842;28;20127;-78
2022/04/27 10:34:25;;;;;;;14.77;10.32;;;;;;;16.39;46.83;101840.75;5082650;28;20055;-77
2022/04/27 10:36:54;;;;;;;13.73;11.32;;;;;;;15.01;47.38;101835.00;5079902;28;20126;-77
2022/04/27 10:39:23;;;;;;;17.65;11.15;;;;;;;15.15;48.09;101839.69;5080869;28;20083;-76
2022/04/27 10:41:55;;;;;;;12.45;11.20;;;;;;;15.75;47.84;101834.38;5080368;28;20040;-78
2022/04/27 10:44:22;;;;;;;16.55;11.13;;;;;;;15.88;47.17;101845.31;5082874;28;20437;-77
2022/04/27 10:46:49;;;;;;;17.08;11.55;;;;;;;15.45;46.84;101841.81;5078742;28;20044;-77
2022/04/27 10:49:23;;;;;;;16.52;11.10;;;;;;;15.24;48.46;101838.75;5084277;28;20121;-77
2022/04/27 10:52:11;;;;;;;13.10;10.20;;;;;;;16.04;49.35;101853.28;5083098;28;20040;-78
2022/04/27 10:54:42;;;;;;;14.02;10.63;;;;;;;15.87;46.74;101846.28;5078378;28;20479;-78
2022/04/27 10:57:41;;;;;;;13.55;11.40;;;;;;;15.85;46.40;101851.72;5083273;28;20071;-78
2022/04/27 11:00:09;;;;;;;14.90;11.52;;;;;;;16.30;45.36;101845.19;5083171;28;20076;-77
2022/04/27 11:02:37;;;;;;;14.02;10.85;;;;;;;16.58;46.93;101840.41;5083673;28;20075;-78
2022/04/27 11:05:06;;;;;;;12.75;10.50;;;;;;;16.35;46.00;101850.81;5085162;28;20048;-78
2022/04/27 11:07:40;;;;;;;16.30;11.35;;;;;;;16.52;44.91;101841.09;5084270;28;20088;-76
2022/04/27 11:10:12;;;;;;;16.90;11.05;;;;;;;16.13;46.40;101846.16;5082621;28;20079;-77
2022/04/27 11:12:40;;;;;;;13.05;10.45;;;;;;;15.84;46.20;101841.31;5081983;28;20036;-77
2022/04/27 11:15:10;;;;;;;12.75;11.35;;;;;;;15.96;46.20;101839.22;5081222;28;20053;-78
2022/04/27 11:17:38;;;;;;;15.20;11.35;;;;;;;16.44;45.84;101836.63;5082946;28;20670;-79
2022/04/27 11:20:06;;;;;;;14.52;11.18;;;;;;;16.48;45.35;101840.59;5098424;28;20186;-78
2022/04/27 11:22:40;;;;;;;15.07;11.48;;;;;;;16.60;45.62;101838.41;5109398;28;20039;-79
2022/04/27 11:25:08;;;;;;;14.98;11.38;;;;;;;16.31;45.40;101843.38;5113522;28;20047;-78
2022/04/27 11:27:36;;;;;;;15.85;11.25;;;;;;;16.22;46.22;101839.91;5120097;28;20554;-80
2022/04/27 11:30:07;;;;;;;13.85;11.45;;;;;;;16.01;44.71;101850.13;5118208;28;20048;-79
2022/04/27 11:32:35;;;;;;;13.82;11.85;;;;;;;16.20;44.92;101841.88;5101046;28;20044;-78
2022/04/27 11:35:02;;;;;;;16.70;11.50;;;;;;;16.08;45.35;101838.72;5092847;28;20105;-79
2022/04/27 11:37:30;;;;;;;15.23;11.15;;;;;;;16.12;45.74;101845.34;5086125;28;20048;-78
2022/04/27 11:40:12;;;;;;;13.75;12.32;;;;;;;16.58;45.97;101835.13;5084591;28;20083;-78
2022/04/27 11:42:42;;;;;;;13.05;11.65;;;;;;;16.93;45.20;101833.97;5084916;28;20047;-78
2022/04/27 11:45:12;;;;;;;13.10;11.38;;;;;;;17.10;45.32;101824.16;5085145;28;20106;-77
2022/04/27 11:47:38;;;;;;;13.82;11.43;;;;;;;16.92;44.04;101837.63;5091115;28;20563;-78
2022/04/27 11:50:09;;;;;;;15.30;11.75;;;;;;;17.17;45.25;101825.97;5089182;28;20143;-78
2022/04/27 11:52:37;;;;;;;14.25;12.10;;;;;;;16.99;44.32;101827.19;5090182;28;20047;-78
2022/04/27 11:55:11;;;;;;;14.23;11.75;;;;;;;16.73;45.10;101838.78;5088244;28;20094;-78
2022/04/27 11:57:39;;;;;;;14.52;12.00;;;;;;;16.53;45.64;101827.72;5094013;28;20045;-79
2022/04/27 12:00:07;;;;;;;13.00;11.55;;;;;;;16.52;44.80;101822.59;5092111;28;20101;-78
2022/04/27 12:02:35;;;;;;;14.88;11.63;;;;;;;17.14;45.72;101822.81;5084621;28;20072;-77
2022/04/27 12:05:02;;;;;;;16.48;13.18;;;;;;;17.04;44.37;101824.84;5084837;28;20044;-77
2022/04/27 12:07:35;;;;;;;14.18;12.20;;;;;;;17.12;44.13;101827.47;5083818;28;20066;-77
2022/04/27 12:10:02;;;;;;;;;;;;;;;16.93;44.66;101818.13;5082220;28;20046;-78